Time;durP1;ratioP1;P1;durP2;ratioP2;P2;SDS_P1;SDS_P2;PMS_P1;PMS_P2;Temp;Humidity;BMP_temperature;BMP_pressure;BME280_temperature;BME280_humidity;BME280_pressure;Samples;Min_cycle;Max_cycle;Signal;HPM_P1;HPM_P2
2023/10/04 00:00:30;;;;;;;8.88;1.98;;;12.40;99.90;;;11.27;100.00;101211.59;6129910;23;20608;-80
2023/10/04 00:02:56;;;;;;;16.23;2.17;;;12.40;99.90;;;11.25;100.00;101212.53;6093761;23;20066;-79
2023/10/04 00:05:24;;;;;;;8.82;1.73;;;12.40;99.90;;;11.27;100.00;101221.25;6121475;23;20016;-79
2023/10/04 00:07:55;;;;;;;13.45;2.00;;;12.40;99.90;;;11.25;100.00;101229.25;6133566;23;20037;-80
2023/10/04 00:10:23;;;;;;;12.60;1.90;;;12.40;99.90;;;11.25;100.00;101231.88;6104375;23;20448;-80
2023/10/04 00:12:50;;;;;;;11.77;2.00;;;12.40;99.90;;;11.27;100.00;101232.69;6135118;23;20013;-81
2023/10/04 00:15:25;;;;;;;8.10;2.03;;;12.40;99.90;;;11.27;100.00;101223.88;6101206;23;20470;-80
2023/10/04 00:17:52;;;;;;;15.68;2.30;;;12.40;99.90;;;11.26;100.00;101232.72;6174651;23;20479;-80
2023/10/04 00:20:19;;;;;;;12.63;2.90;;;12.40;99.90;;;11.28;100.00;101233.53;6118994;23;20079;-80
2023/10/04 00:22:49;;;;;;;10.93;2.47;;;12.40;99.90;;;11.28;100.00;101231.75;6079095;23;20397;-79
2023/10/04 00:25:21;;;;;;;13.75;2.42;;;12.40;99.90;;;11.29;100.00;101236.13;6076012;23;20016;-79
2023/10/04 00:27:48;;;;;;;16.75;2.00;;;12.40;99.90;;;11.31;100.00;101241.28;6090105;23;20371;-79
2023/10/04 00:30:17;;;;;;;14.93;2.10;;;12.40;99.90;;;11.33;100.00;101238.59;6140875;23;20066;-80
2023/10/04 00:32:46;;;;;;;12.40;2.45;;;12.40;99.90;;;11.33;100.00;101238.59;6124276;23;20023;-79
2023/10/04 00:35:29;;;;;;;;;;;;;;;;;;;;;
2023/10/04 00:38:00;;;;;;;12.50;2.42;;;12.40;99.90;;;11.33;100.00;101251.78;6077286;23;20551;-79
2023/10/04 00:40:33;;;;;;;20.33;2.95;;;12.50;99.90;;;11.36;100.00;101255.16;6064788;23;20127;-79
2023/10/04 00:43:01;;;;;;;15.70;2.80;;;12.50;99.90;;;11.40;100.00;101248.84;6111200;23;20145;-79
2023/10/04 00:45:34;;;;;;;15.68;3.08;;;12.50;99.90;;;11.46;100.00;101260.91;6098724;23;20023;-80
2023/10/04 00:48:10;;;;;;;11.27;2.78;;;12.50;99.90;;;11.47;100.00;101255.56;6155008;23;20025;-79
2023/10/04 00:50:36;;;;;;;15.80;3.20;;;12.60;99.90;;;11.47;100.00;101260.00;6117935;23;20033;-79
2023/10/04 00:53:09;;;;;;;14.52;3.10;;;12.60;99.90;;;11.52;100.00;101251.88;6131952;23;20017;-80
2023/10/04 00:55:43;;;;;;;20.98;4.18;;;12.60;99.90;;;11.54;100.00;101255.31;6159177;23;20451;-80
2023/10/04 00:58:11;;;;;;;19.65;3.72;;;12.60;99.90;;;11.55;100.00;101257.88;6120044;23;20462;-79
2023/10/04 01:00:41;;;;;;;11.02;2.72;;;12.60;99.90;;;11.55;100.00;101255.22;6141879;23;20012;-79
2023/10/04 01:03:09;;;;;;;17.10;3.08;;;12.70;99.90;;;11.58;100.00;101254.28;6131668;23;20024;-80
2023/10/04 01:05:38;;;;;;;18.90;3.25;;;12.70;99.90;;;11.59;100.00;101255.97;6077214;23;20470;-80
2023/10/04 01:08:06;;;;;;;15.93;3.33;;;12.70;99.90;;;11.57;100.00;101256.03;6116289;23;20376;-80
2023/10/04 01:10:36;;;;;;;13.25;3.35;;;12.70;99.90;;;11.58;100.00;101259.53;6146585;23;20009;-80
2023/10/04 01:13:05;;;;;;;15.40;3.00;;;12.70;99.90;;;11.57;100.00;101261.31;6107865;23;20065;-79
2023/10/04 01:15:36;;;;;;;18.75;3.40;;;12.70;99.90;;;11.54;100.00;101256.16;6118056;23;20032;-80
2023/10/04 01:18:09;;;;;;;20.42;3.10;;;12.60;99.90;;;11.55;100.00;101255.22;6107631;23;20071;-80
2023/10/04 01:20:37;;;;;;;22.30;3.70;;;12.60;99.90;;;11.53;100.00;101254.44;6115817;23;20012;-80
2023/10/04 01:23:09;;;;;;;21.42;3.42;;;12.70;99.90;;;11.57;100.00;101261.31;6158537;23;20079;-80
2023/10/04 01:25:41;;;;;;;16.45;2.97;;;12.60;99.90;;;11.55;100.00;101268.41;6100200;23;20032;-80
2023/10/04 01:28:14;;;;;;;21.20;4.82;;;12.70;99.90;;;11.55;100.00;101263.16;6117884;23;20519;-79
2023/10/04 01:30:45;;;;;;;18.52;3.15;;;12.60;99.90;;;11.55;100.00;101272.84;6084638;23;20079;-79
2023/10/04 01:33:20;;;;;;;14.00;3.80;;;12.60;99.90;;;11.53;100.00;101272.91;6103134;23;20021;-79
2023/10/04 01:36:00;;;;;;;16.48;2.92;;;12.60;99.90;;;11.55;100.00;101265.78;6127739;23;20062;-79
2023/10/04 01:38:27;;;;;;;21.15;4.10;;;12.70;99.90;;;11.55;100.00;101263.16;6130574;23;20037;-79
2023/10/04 01:41:02;;;;;;;19.30;3.33;;;12.70;99.90;;;11.55;100.00;101263.16;6143403;23;20083;-79
2023/10/04 01:43:28;;;;;;;13.93;2.60;;;12.60;99.90;;;11.54;100.00;101264.09;6078081;23;20038;-79
2023/10/04 01:46:02;;;;;;;15.45;2.95;;;12.70;99.90;;;11.55;100.00;101257.88;6117851;23;20040;-80
2023/10/04 01:48:31;;;;;;;18.70;4.25;;;12.70;99.90;;;11.58;100.00;101264.81;6106650;23;20404;-79
2023/10/04 01:50:56;;;;;;;21.90;3.60;;;12.70;99.90;;;11.61;100.00;101272.59;6060018;23;20045;-79
2023/10/04 01:53:24;;;;;;;21.40;3.63;;;12.70;99.90;;;11.60;100.00;101270.88;6094096;23;20017;-80
2023/10/04 01:55:50;;;;;;;26.15;3.60;;;12.70;99.90;;;11.62;100.00;101267.25;6108196;23;20013;-79
2023/10/04 01:58:24;;;;;;;17.75;3.15;;;12.70;99.90;;;11.63;100.00;101261.03;6130478;23;20024;-79
2023/10/04 02:00:53;;;;;;;23.08;3.58;;;12.70;99.90;;;11.64;100.00;101264.53;6114231;23;20028;-80
2023/10/04 02:03:22;;;;;;;12.27;2.63;;;12.80;99.90;;;11.66;100.00;101268.84;6110518;23;20024;-79
2023/10/04 02:05:58;;;;;;;19.73;3.28;;;12.80;99.90;;;11.69;100.00;101265.22;6129554;23;20024;-79
2023/10/04 02:08:31;;;;;;;13.10;3.03;;;12.80;99.90;;;11.71;100.00;101271.28;6108900;23;20013;-79
2023/10/04 02:10:57;;;;;;;16.45;2.65;;;12.80;99.90;;;11.74;100.00;101272.94;6110940;23;20017;-80
2023/10/04 02:13:25;;;;;;;13.85;2.70;;;12.90;99.90;;;11.76;100.00;101271.94;6102821;23;20005;-80
2023/10/04 02:15:54;;;;;;;12.15;2.70;;;12.90;99.90;;;11.79;100.00;101277.09;6063719;23;20017;-79
2023/10/04 02:18:21;;;;;;;11.77;2.53;;;12.90;99.90;;;11.82;100.00;101273.47;6082986;23;20083;-80
2023/10/04 02:20:53;;;;;;;18.23;2.70;;;13.00;99.90;;;11.86;100.00;101273.25;6087538;23;20050;-79
2023/10/04 02:23:27;;;;;;;15.40;2.80;;;13.00;99.90;;;11.89;100.00;101282.84;6166920;23;20040;-79
2023/10/04 02:25:53;;;;;;;12.38;2.63;;;13.00;99.90;;;11.90;100.00;101277.53;6090254;23;20016;-79
2023/10/04 02:28:22;;;;;;;21.65;3.38;;;13.00;99.90;;;11.95;100.00;101285.22;6171063;23;20013;-79
2023/10/04 02:30:54;;;;;;;20.90;2.88;;;13.10;99.90;;;11.98;100.00;101282.44;6124391;23;20050;-80
2023/10/04 02:33:19;;;;;;;17.85;2.70;;;13.10;99.90;;;11.97;100.00;101283.38;6130530;23;20474;-79
2023/10/04 02:35:48;;;;;;;19.52;2.90;;;13.10;99.90;;;11.98;100.00;101284.22;6115631;23;20016;-79
2023/10/04 02:38:33;;;;;;;18.17;2.67;;;13.10;99.90;;;11.99;100.00;101276.25;6102730;23;20024;-78
2023/10/04 02:41:05;;;;;;;12.02;2.83;;;13.10;99.90;;;11.99;100.00;101281.53;6151162;23;20013;-81
2023/10/04 02:43:31;;;;;;;26.10;2.50;;;13.10;99.90;;;11.98;100.00;101279.81;6057533;23;20017;-80
2023/10/04 02:45:58;;;;;;;15.02;3.10;;;13.10;99.90;;;12.02;100.00;101285.81;6131315;23;20522;-80
2023/10/04 02:48:29;;;;;;;18.83;3.13;;;13.10;99.90;;;12.02;100.00;101283.19;6137546;23;20017;-79
2023/10/04 02:50:56;;;;;;;15.93;2.67;;;13.20;99.90;;;12.07;100.00;101287.34;6062407;23;20021;-79
2023/10/04 02:53:24;;;;;;;16.67;2.83;;;13.10;99.90;;;12.05;100.00;101288.31;6081252;23;20016;-80
2023/10/04 02:55:54;;;;;;;19.45;3.10;;;13.10;99.90;;;12.06;100.00;101290.03;6111190;23;20442;-80
2023/10/04 02:58:21;;;;;;;19.65;3.67;;;13.10;99.90;;;12.04;100.00;101289.25;6110767;23;20528;-79
2023/10/04 03:00:49;;;;;;;18.52;3.17;;;13.10;99.90;;;11.99;100.00;101288.59;6129488;23;20067;-78
2023/10/04 03:03:19;;;;;;;14.38;2.65;;;13.10;99.90;;;11.96;100.00;101288.72;6129471;23;20023;-80
2023/10/04 03:05:48;;;;;;;14.50;2.40;;;13.00;99.90;;;11.90;100.00;101285.44;6136125;23;20036;-79
2023/10/04 03:08:14;;;;;;;11.60;2.47;;;13.00;99.90;;;11.90;100.00;101288.06;6154717;23;20063;-79
2023/10/04 03:10:40;;;;;;;13.52;3.08;;;13.00;99.90;;;11.89;100.00;101288.97;6080891;23;20024;-80
2023/10/04 03:13:15;;;;;;;17.90;3.00;;;13.00;99.90;;;11.87;100.00;101282.88;6121249;23;20016;-79
2023/10/04 03:15:46;;;;;;;16.65;3.75;;;12.90;99.90;;;11.82;100.00;101286.66;6122363;23;20406;-79
2023/10/04 03:18:19;;;;;;;13.65;2.60;;;12.90;99.90;;;11.84;100.00;101290.09;6121109;23;20471;-80
2023/10/04 03:23:35;;;;;;;10.85;2.63;;;12.90;99.90;;;11.79;100.00;101284.13;6135595;23;20016;-79
2023/10/04 03:26:12;;;;;;;13.07;2.45;;;12.90;99.90;;;11.76;100.00;101286.91;6083094;23;20028;-80
2023/10/04 03:28:38;;;;;;;12.13;2.58;;;12.90;99.90;;;11.75;100.00;101290.47;6141622;23;20028;-79
2023/10/04 03:31:14;;;;;;;15.68;2.67;;;12.90;99.90;;;11.75;100.00;101291.34;6169468;23;20430;-79
2023/10/04 03:33:43;;;;;;;14.48;3.00;;;12.90;99.90;;;11.76;100.00;101295.69;6091900;23;20013;-79
2023/10/04 03:36:18;;;;;;;13.13;2.53;;;12.90;99.90;;;11.78;100.00;101292.97;6080844;23;20012;-79
2023/10/04 03:38:45;;;;;;;13.32;2.90;;;12.90;99.90;;;11.80;100.00;101289.34;6120772;23;20567;-79
2023/10/04 03:41:13;;;;;;;17.83;2.97;;;12.90;99.90;;;11.80;100.00;101299.06;6084606;23;20017;-80
2023/10/04 03:43:41;;;;;;;12.48;2.20;;;12.90;99.90;;;11.83;100.00;101294.47;6079139;23;20105;-79
2023/10/04 03:46:22;;;;;;;14.82;2.85;;;12.90;99.90;;;11.85;100.00;101302.34;6090739;23;20022;-79
2023/10/04 03:48:49;;;;;;;13.68;2.47;;;12.90;99.90;;;11.85;100.00;101307.63;6096466;23;20053;-80
2023/10/04 03:51:20;;;;;;;14.10;2.75;;;13.00;99.90;;;11.86;100.00;101304.06;6123620;23;20789;-79
2023/10/04 03:53:53;;;;;;;14.82;3.13;;;13.00;99.90;;;11.87;100.00;101303.13;6113528;23;20391;-79
2023/10/04 03:56:21;;;;;;;13.52;2.58;;;13.00;99.90;;;11.84;100.00;101298.00;6136203;23;20082;-79
2023/10/04 03:58:51;;;;;;;19.70;3.40;;;13.00;99.90;;;11.87;100.00;101305.78;6117041;23;20009;-78
2023/10/04 04:01:17;;;;;;;13.90;2.65;;;12.90;99.90;;;11.83;100.00;101307.69;6149406;23;20009;-79
2023/10/04 04:03:44;;;;;;;8.95;2.70;;;12.90;99.90;;;11.81;100.00;101300.75;6118943;23;20016;-79
2023/10/04 04:06:11;;;;;;;12.70;2.55;;;12.90;99.90;;;11.81;100.00;101300.75;6108648;23;20087;-80
2023/10/04 04:08:37;;;;;;;15.02;3.47;;;12.90;99.90;;;11.80;100.00;101301.69;6115660;23;20036;-79
2023/10/04 04:11:14;;;;;;;11.75;2.58;;;12.90;99.90;;;11.77;100.00;101300.06;6104872;23;20009;-80
2023/10/04 04:13:40;;;;;;;19.58;2.60;;;12.90;99.90;;;11.74;100.00;101309.88;6107195;23;20109;-80
2023/10/04 04:16:09;;;;;;;15.95;2.80;;;12.90;99.90;;;11.74;100.00;101315.13;6149751;23;20020;-79
2023/10/04 04:18:38;;;;;;;11.93;2.55;;;12.90;99.90;;;11.72;100.00;101307.28;6120604;23;20019;-79
2023/10/04 04:21:04;;;;;;;17.65;2.90;;;12.80;99.90;;;11.72;100.00;101309.06;6122393;23;20100;-80
2023/10/04 04:23:31;;;;;;;15.50;2.35;;;12.80;99.90;;;11.69;100.00;101310.91;6158798;23;20009;-79
2023/10/04 04:26:00;;;;;;;20.98;2.78;;;12.80;99.90;;;11.71;100.00;101310.84;6050503;23;20022;-78
2023/10/04 04:28:28;;;;;;;17.00;2.80;;;12.80;99.90;;;11.67;100.00;101315.38;6070572;23;20021;-80
2023/10/04 04:30:54;;;;;;;11.80;2.58;;;12.80;99.90;;;11.70;100.00;101317.03;6137833;23;20467;-79
2023/10/04 04:33:25;;;;;;;13.07;2.78;;;12.80;99.90;;;11.70;100.00;101315.28;6061874;23;20002;-80
2023/10/04 04:36:00;;;;;;;11.07;2.42;;;12.80;99.90;;;11.69;100.00;101321.47;6158144;23;20019;-79
2023/10/04 04:38:29;;;;;;;13.65;2.72;;;12.80;99.90;;;11.69;100.00;101321.47;6111387;23;22113;-79
2023/10/04 04:41:04;;;;;;;11.05;2.50;;;12.80;99.90;;;11.73;100.00;101321.31;6133700;23;20036;-80
2023/10/04 04:43:36;;;;;;;11.50;2.38;;;12.80;99.90;;;11.72;100.00;101322.25;6155773;23;20017;-79
2023/10/04 04:46:07;;;;;;;18.15;2.47;;;12.80;99.90;;;11.71;100.00;101324.03;6101108;23;20064;-80
2023/10/04 04:48:35;;;;;;;14.23;2.40;;;12.80;99.90;;;11.73;100.00;101324.84;6078048;23;20020;-80
2023/10/04 04:51:11;;;;;;;10.95;2.33;;;12.90;99.90;;;11.75;100.00;101317.72;6079410;23;20076;-80
2023/10/04 04:53:46;;;;;;;11.60;2.55;;;12.80;99.90;;;11.78;100.00;101330.78;6140657;23;20016;-81
2023/10/04 04:56:14;;;;;;;14.18;2.63;;;12.90;99.90;;;11.79;100.00;101321.94;6055344;23;20013;-80
2023/10/04 04:58:52;;;;;;;14.68;2.95;;;12.90;99.90;;;11.82;100.00;101328.88;6109482;23;20013;-80
2023/10/04 05:01:18;;;;;;;14.25;2.42;;;12.90;99.90;;;11.83;100.00;101331.44;6155465;23;20379;-80
2023/10/04 05:03:50;;;;;;;16.73;2.50;;;12.90;99.90;;;11.82;100.00;101344.69;6143428;23;20023;-79
2023/10/04 05:06:27;;;;;;;18.95;2.53;;;12.90;99.90;;;11.82;100.00;101345.56;6124491;23;20013;-79
2023/10/04 05:08:56;;;;;;;11.70;2.15;;;13.00;99.90;;;11.84;100.00;101348.13;6146279;23;20150;-80
2023/10/04 05:11:26;;;;;;;18.92;2.50;;;12.90;99.90;;;11.82;100.00;101349.97;6114925;23;20013;-80
2023/10/04 05:13:56;;;;;;;9.43;2.13;;;12.90;99.90;;;11.82;100.00;101352.63;6124298;23;20096;-79
2023/10/04 05:16:25;;;;;;;14.25;2.72;;;12.90;99.90;;;11.82;100.00;101344.69;6161477;23;20016;-79
2023/10/04 05:18:53;;;;;;;12.35;2.70;;;12.90;99.90;;;11.80;100.00;101360.59;6122891;23;20087;-80
2023/10/04 05:21:19;;;;;;;15.88;2.70;;;12.90;99.90;;;11.83;100.00;101354.31;6134877;23;20108;-80
2023/10/04 05:23:45;;;;;;;14.80;2.55;;;12.90;99.90;;;11.83;100.00;101356.97;6095801;23;20014;-80
2023/10/04 05:26:12;;;;;;;10.38;2.30;;;12.90;99.90;;;11.85;100.00;101363.88;6105244;23;20475;-79
2023/10/04 05:28:38;;;;;;;9.23;2.20;;;12.90;99.90;;;11.88;100.00;101370.88;6138720;23;20067;-79
2023/10/04 05:31:12;;;;;;;15.45;3.13;;;13.00;99.90;;;11.91;100.00;101368.09;6116990;23;20027;-79
2023/10/04 05:33:40;;;;;;;12.88;2.03;;;13.00;99.90;;;11.91;100.00;101373.38;6114865;23;20691;-80
2023/10/04 05:36:08;;;;;;;13.40;2.20;;;13.00;99.90;;;11.94;100.00;101375.88;6151701;23;20024;-80
2023/10/04 05:38:37;;;;;;;9.60;2.50;;;13.00;99.90;;;11.93;100.00;101376.81;6057423;23;20016;-81
2023/10/04 05:41:03;;;;;;;15.43;2.50;;;13.00;99.90;;;11.96;100.00;101376.66;6084872;23;20476;-80
2023/10/04 05:43:29;;;;;;;12.43;2.10;;;13.10;99.90;;;12.01;100.00;101381.78;6098086;23;20492;-80
2023/10/04 05:45:56;;;;;;;12.30;1.98;;;13.10;99.90;;;12.02;100.00;101384.31;6093129;23;20013;-80
2023/10/04 05:48:21;;;;;;;9.10;1.95;;;13.10;99.90;;;12.05;100.00;101384.22;6182168;23;20524;-80
2023/10/04 05:50:59;;;;;;;14.80;2.10;;;13.10;99.90;;;12.11;100.00;101393.63;6160765;23;20048;-81
2023/10/04 05:53:26;;;;;;;13.50;2.45;;;13.20;99.90;;;12.14;100.00;101392.66;6123284;23;20023;-79
2023/10/04 05:55:56;;;;;;;10.95;2.08;;;13.20;99.90;;;12.19;100.00;101391.53;6046775;23;20013;-80
2023/10/04 05:58:22;;;;;;;13.48;2.05;;;13.30;99.90;;;12.22;100.00;101395.81;6088163;23;20013;-80
2023/10/04 06:00:54;;;;;;;11.48;2.33;;;13.30;99.90;;;12.29;100.00;101403.44;6092936;23;20079;-79
2023/10/04 06:03:20;;;;;;;13.82;2.40;;;13.40;99.90;;;12.29;100.00;101398.16;6135328;23;20020;-80
2023/10/04 06:05:46;;;;;;;14.57;2.28;;;13.40;99.90;;;12.35;100.00;101401.44;6145718;23;20084;-79
2023/10/04 06:08:18;;;;;;;11.23;2.05;;;13.40;99.90;;;12.40;100.00;101410.03;6070211;23;20013;-79
2023/10/04 06:10:46;;;;;;;10.23;2.10;;;13.50;99.90;;;12.40;100.00;101410.88;6114841;23;20009;-80
2023/10/04 06:13:12;;;;;;;9.05;2.08;;;13.50;99.90;;;12.42;100.00;101410.81;6152941;23;20525;-80
2023/10/04 06:15:47;;;;;;;10.15;2.25;;;13.50;99.90;;;12.45;100.00;101424.75;6061167;23;20008;-79
2023/10/04 06:18:13;;;;;;;11.65;2.20;;;13.50;99.90;;;12.46;100.00;101429.13;6106675;23;20035;-80
2023/10/04 06:20:40;;;;;;;11.77;2.40;;;13.50;99.90;;;12.46;100.00;101429.13;6148004;23;20036;-80
2023/10/04 06:23:17;;;;;;;10.73;2.10;;;13.50;99.90;;;12.48;100.00;101423.75;6085913;23;20092;-80
2023/10/04 06:25:46;;;;;;;14.45;2.63;;;13.60;99.90;;;12.50;100.00;101435.97;6062324;23;20558;-80
2023/10/04 06:28:13;;;;;;;10.77;2.05;;;13.60;99.90;;;12.55;100.00;101432.25;6161916;23;20155;-81
2023/10/04 06:30:43;;;;;;;14.77;2.78;;;13.60;99.90;;;12.60;100.00;101443.50;6106020;23;20091;-80
2023/10/04 06:33:11;;;;;;;16.70;2.92;;;13.70;99.90;;;12.65;100.00;101449.44;6134539;23;20052;-80
2023/10/04 06:35:38;;;;;;;19.02;2.55;;;13.70;99.90;;;12.65;100.00;101438.88;6112952;23;20021;-79
2023/10/04 06:38:09;;;;;;;12.50;2.13;;;13.70;99.90;;;12.64;100.00;101453.88;6152863;23;20077;-80
2023/10/04 06:40:36;;;;;;;15.82;2.53;;;13.70;99.90;;;12.67;100.00;101464.28;6130741;23;20013;-79
2023/10/04 06:43:12;;;;;;;14.02;2.60;;;13.70;99.90;;;12.68;100.00;101470.47;6045898;23;20019;-79
2023/10/04 06:45:41;;;;;;;10.27;2.20;;;13.80;99.90;;;12.72;100.00;101464.97;6092378;23;20012;-80
2023/10/04 06:48:07;;;;;;;10.15;1.98;;;13.80;99.90;;;12.77;100.00;101471.84;6142381;23;20017;-80
2023/10/04 06:50:36;;;;;;;18.27;2.85;;;13.80;99.90;;;12.82;100.00;101467.19;6110067;23;20017;-80
2023/10/04 06:53:04;;;;;;;10.55;2.20;;;13.90;99.90;;;12.86;100.00;101477.56;6066653;23;20531;-79
2023/10/04 06:55:32;;;;;;;17.70;2.80;;;13.90;99.90;;;12.89;100.00;101481.84;6103370;23;20016;-80
2023/10/04 06:57:58;;;;;;;17.92;2.45;;;13.90;99.90;;;12.91;100.00;101482.63;6146137;23;20016;-79
2023/10/04 07:00:33;;;;;;;11.60;2.47;;;14.00;99.90;;;12.92;100.00;101479.94;6085833;23;20069;-80
2023/10/04 07:03:02;;;;;;;10.93;2.30;;;14.00;99.90;;;13.04;100.00;101491.72;6092164;23;20036;-79
2023/10/04 07:05:37;;;;;;;13.88;2.53;;;14.10;99.90;;;13.08;100.00;101497.75;6082525;23;20551;-79
2023/10/04 07:08:09;;;;;;;13.68;2.47;;;14.10;99.90;;;13.05;100.00;101504.03;6141570;23;20076;-79
2023/10/04 07:10:36;;;;;;;14.45;2.50;;;14.20;99.90;;;13.17;100.00;101504.41;6162838;23;20096;-80
2023/10/04 07:13:06;;;;;;;13.88;2.22;;;14.20;99.90;;;13.22;100.00;101505.09;6158738;23;20021;-80
2023/10/04 07:15:35;;;;;;;14.57;2.83;;;14.20;99.90;;;13.22;100.00;101505.09;6107453;23;20028;-80
2023/10/04 07:18:06;;;;;;;15.02;2.25;;;14.30;99.90;;;13.26;100.00;101510.16;6142051;23;20070;-79
2023/10/04 07:20:35;;;;;;;11.20;2.63;;;14.30;99.90;;;13.27;100.00;101503.94;6092164;23;20533;-80
2023/10/04 07:23:03;;;;;;;13.80;3.05;;;14.30;99.90;;;13.25;99.64;101505.78;6131590;23;20549;-80
2023/10/04 07:25:34;;;;;;;14.68;2.67;;;14.30;99.90;;;13.29;99.37;101506.53;6140853;23;20020;-80
2023/10/04 07:28:11;;;;;;;16.40;2.92;;;14.30;99.90;;;13.31;99.34;101502.03;6111980;23;20013;-79
2023/10/04 07:30:38;;;;;;;11.23;2.50;;;14.40;99.90;;;13.33;99.42;101516.06;6079566;23;20020;-79
2023/10/04 07:33:04;;;;;;;17.08;3.55;;;14.40;99.90;;;13.34;100.00;101526.53;6124177;23;20020;-80
2023/10/04 07:35:34;;;;;;;11.57;2.50;;;14.40;99.90;;;13.33;100.00;101531.94;6129759;23;20009;-80
2023/10/04 07:38:00;;;;;;;15.57;2.88;;;14.40;99.90;;;13.27;100.00;101527.72;6140835;23;20019;-84
2023/10/04 07:40:27;;;;;;;11.85;2.90;;;14.40;99.90;;;13.33;100.00;101535.44;6075566;23;20013;-82
2023/10/04 07:42:54;;;;;;;16.50;3.30;;;14.40;99.90;;;13.43;100.00;101525.28;6090246;23;20619;-83
2023/10/04 07:45:29;;;;;;;13.02;2.92;;;14.50;99.90;;;13.51;100.00;101536.38;6111898;23;20017;-87
2023/10/04 07:47:58;;;;;;;14.33;3.20;;;14.50;99.90;;;13.56;100.00;101530.84;6069527;23;20009;-83
2023/10/04 07:50:25;;;;;;;10.65;2.92;;;14.60;99.90;;;13.59;99.13;101530.72;6079861;23;20001;-84
2023/10/04 07:53:04;;;;;;;14.98;3.08;;;14.70;99.90;;;13.69;99.27;101542.63;6089341;23;20037;-80
2023/10/04 07:55:34;;;;;;;14.75;3.25;;;14.70;99.90;;;13.69;98.38;101541.72;6141852;23;20021;-80
2023/10/04 07:58:04;;;;;;;10.90;2.70;;;14.70;99.90;;;13.66;96.47;101541.88;6113733;23;20021;-80
2023/10/04 08:00:31;;;;;;;18.00;3.88;;;14.70;99.90;;;13.65;96.29;101542.81;6148108;23;20064;-80
2023/10/04 08:02:57;;;;;;;15.80;4.03;;;14.70;99.90;;;13.72;96.93;101552.19;6110525;23;20027;-79
2023/10/04 08:05:29;;;;;;;12.27;3.00;;;14.80;99.90;;;13.77;96.90;101550.19;6127490;23;20021;-79
2023/10/04 08:07:57;;;;;;;18.17;2.92;;;14.80;99.90;;;13.82;96.61;101572.00;6154908;23;20013;-79
2023/10/04 08:10:29;;;;;;;13.15;3.28;;;14.90;99.90;;;13.87;96.06;101564.72;6185054;23;20016;-80
2023/10/04 08:12:59;;;;;;;15.00;3.10;;;14.80;99.90;;;13.85;95.10;101563.06;6158159;23;20021;-80
2023/10/04 08:15:27;;;;;;;18.40;3.58;;;14.90;99.90;;;14.01;95.53;101564.03;6134322;23;20039;-79
2023/10/04 08:18:03;;;;;;;14.45;3.13;;;15.00;99.90;;;14.11;94.27;101561.81;6112552;23;20005;-79
2023/10/04 08:20:29;;;;;;;;;;;15.20;99.90;;;14.23;94.65;101563.84;6143788;23;20501;-79
2023/10/04 08:23:01;;;;;;;12.27;2.90;;;15.20;99.90;;;14.31;93.72;101576.75;6132049;23;20260;-80
2023/10/04 08:25:28;;;;;;;15.05;2.70;;;15.30;99.90;;;14.37;92.62;101576.44;6133659;23;20009;-78
2023/10/04 08:27:55;;;;;;;11.55;2.97;;;15.40;99.90;;;14.38;90.87;101577.31;6116723;23;20110;-79
2023/10/04 08:30:20;;;;;;;15.68;3.00;;;15.70;99.90;;;14.46;90.74;101583.09;6107577;23;20017;-79
2023/10/04 08:32:57;;;;;;;12.13;2.30;;;15.50;99.90;;;14.48;90.97;101586.53;6112849;23;20021;-80
2023/10/04 08:35:27;;;;;;;13.00;2.92;;;15.50;99.90;;;14.48;90.02;101594.47;6143717;23;20348;-79
2023/10/04 08:38:02;;;;;;;13.02;2.85;;;15.50;99.90;;;14.40;89.14;101586.03;6143430;23;20609;-79
2023/10/04 08:40:29;;;;;;;11.27;2.65;;;15.40;99.90;;;14.36;89.95;101603.84;6103827;23;20004;-79
2023/10/04 08:42:56;;;;;;;19.88;3.55;;;15.40;99.90;;;14.41;90.42;101611.63;6125014;23;20021;-80
2023/10/04 08:45:35;;;;;;;14.68;2.75;;;15.50;99.90;;;14.50;91.17;101605.84;6097205;23;20414;-80
2023/10/04 08:48:07;;;;;;;18.23;3.00;;;15.50;99.90;;;14.56;90.67;101609.09;6124832;23;20020;-80
2023/10/04 08:50:46;;;;;;;13.55;2.72;;;15.50;99.90;;;14.55;90.05;101622.41;6073104;23;20646;-80
2023/10/04 08:54:18;;;;;;;14.00;2.85;;;15.60;99.90;;;14.57;90.07;101620.53;6143503;23;20122;-80
2023/10/04 08:57:14;;;;;;;17.13;3.30;;;15.60;99.90;;;14.52;89.68;101627.84;6032341;23;20037;-80
2023/10/04 08:59:41;;;;;;;19.80;3.95;;;15.60;99.90;;;14.52;90.28;101615.44;6021310;23;20016;-80
2023/10/04 09:02:14;;;;;;;15.10;3.00;;;15.60;99.90;;;14.56;90.63;101618.84;5990635;23;20063;-80
2023/10/04 09:04:41;;;;;;;12.82;2.95;;;15.60;99.90;;;14.57;90.82;101613.44;6028383;23;20018;-80
2023/10/04 09:07:10;;;;;;;17.23;3.97;;;15.60;99.90;;;14.62;90.64;101615.00;5988803;23;20589;-79
2023/10/04 09:09:45;;;;;;;16.83;3.38;;;15.70;99.90;;;14.75;91.51;101624.94;5974674;23;20014;-79
2023/10/04 09:12:10;;;;;;;14.43;3.03;;;15.80;99.90;;;14.88;91.11;101616.34;6034450;23;20014;-80
2023/10/04 09:14:37;;;;;;;14.95;3.47;;;15.90;99.90;;;15.05;90.41;101631.41;6035635;23;20057;-79
2023/10/04 09:17:07;;;;;;;12.38;3.05;;;16.10;99.90;;;15.25;89.23;101623.31;6048745;23;20011;-80
2023/10/04 09:19:38;;;;;;;13.25;4.20;;;16.20;99.90;;;15.44;88.20;101636.44;6001243;23;20099;-80
2023/10/04 09:22:32;;;;;;;19.05;3.30;;;16.40;99.90;;;15.52;86.08;101631.59;6010932;23;20015;-80
2023/10/04 09:24:59;;;;;;;13.45;3.55;;;16.60;99.90;;;15.76;87.09;101642.72;6053429;23;20278;-82
2023/10/04 09:27:25;;;;;;;15.23;3.17;;;16.70;99.90;;;15.79;84.65;101631.97;6051660;23;20016;-80
2023/10/04 09:29:58;;;;;;;12.55;3.20;;;16.80;99.90;;;15.88;84.71;101637.72;6121125;23;20363;-80
2023/10/04 09:32:40;;;;;;;17.42;3.78;;;16.80;99.90;;;15.82;83.65;101644.22;6112361;23;20065;-79
2023/10/04 09:35:06;;;;;;;14.10;3.28;;;16.80;99.90;;;15.76;84.37;101648.03;6134804;23;20013;-79
2023/10/04 09:37:35;;;;;;;17.85;4.00;;;16.80;99.90;;;15.88;85.14;101640.38;6181505;23;20021;-80
2023/10/04 09:40:10;;;;;;;18.48;4.00;;;16.90;99.90;;;15.85;84.79;101648.50;6142729;23;20009;-81
2023/10/04 09:42:53;;;;;;;14.60;3.30;;;16.90;99.90;;;15.92;84.03;101653.41;6105675;23;20017;-78
2023/10/04 09:45:20;;;;;;;18.38;3.30;;;17.00;99.90;;;16.04;84.87;101661.63;6126579;23;20008;-80
2023/10/04 09:47:53;;;;;;;12.50;3.08;;;17.00;99.90;;;16.03;83.75;101667.91;6119466;23;20015;-79
2023/10/04 09:50:33;;;;;;;12.02;3.33;;;17.10;99.90;;;16.09;84.24;101671.09;6148478;23;20440;-80
2023/10/04 09:53:02;;;;;;;8.93;2.90;;;17.00;99.90;;;16.01;81.98;101667.97;6100574;23;20013;-80
2023/10/04 09:55:36;;;;;;;18.48;3.95;;;17.00;99.90;;;15.83;81.90;101671.63;6142761;23;20032;-79
2023/10/04 09:58:08;;;;;;;11.75;3.17;;;16.80;99.90;;;15.61;82.10;101675.38;6162703;23;20011;-80
2023/10/04 10:00:35;;;;;;;17.27;3.17;;;16.80;99.90;;;15.65;83.02;101676.09;6125522;23;20454;-80
2023/10/04 10:03:09;;;;;;;14.02;3.75;;;16.70;99.90;;;15.55;83.04;101681.00;6137018;23;20072;-80
2023/10/04 10:05:42;;;;;;;11.77;3.38;;;16.70;99.90;;;15.53;83.07;101680.25;6157714;23;20011;-80
2023/10/04 10:08:13;;;;;;;11.88;3.10;;;16.70;99.90;;;15.74;84.58;101694.22;6132893;23;20117;-79
2023/10/04 10:10:45;;;;;;;18.25;3.65;;;16.80;99.90;;;15.79;83.91;101695.69;6166441;23;20017;-79
2023/10/04 10:13:15;;;;;;;14.77;3.00;;;16.80;99.90;;;15.87;83.50;101700.59;6141942;23;20036;-80
2023/10/04 10:15:43;;;;;;;15.73;3.20;;;16.90;99.90;;;15.96;82.80;101701.88;6206038;23;20448;-80
2023/10/04 10:18:20;;;;;;;17.35;3.85;;;16.90;99.90;;;15.98;82.41;101694.69;6162236;23;20116;-79